createdAt,value
2022-09-10T00:01:30.338Z,13.16
2022-09-10T00:03:58.939Z,13.19
2022-09-10T00:06:28.006Z,13.12
2022-09-10T00:08:59.681Z,13.01
2022-09-10T00:11:31.371Z,13.00
2022-09-10T00:14:03.995Z,12.87
2022-09-10T00:16:32.351Z,12.96
2022-09-10T00:19:01.513Z,12.94
2022-09-10T00:21:30.257Z,12.94
2022-09-10T00:23:58.330Z,12.94
2022-09-10T00:26:28.215Z,12.96
2022-09-10T00:28:58.694Z,12.91
2022-09-10T00:31:26.707Z,12.92
2022-09-10T00:33:55.057Z,12.85
2022-09-10T00:36:22.286Z,12.81
2022-09-10T00:38:50.656Z,12.77
2022-09-10T00:41:20.889Z,12.76
2022-09-10T00:44:02.886Z,12.79
2022-09-10T00:46:45.903Z,12.63
2022-09-10T00:49:37.720Z,12.61
2022-09-10T00:52:07.502Z,12.48
2022-09-10T00:54:37.869Z,12.50
2022-09-10T00:57:12.590Z,12.53
2022-09-10T00:59:46.801Z,12.66
2022-09-10T01:02:15.099Z,12.46
2022-09-10T01:04:43.213Z,12.34
2022-09-10T01:07:12.563Z,12.34
2022-09-10T01:09:40.656Z,12.27
2022-09-10T01:12:17.044Z,12.33
2022-09-10T01:14:57.087Z,12.30
2022-09-10T01:17:57.362Z,12.35
2022-09-10T01:20:51.204Z,12.31
2022-09-10T01:23:46.886Z,12.25
2022-09-10T01:26:32.622Z,12.33
2022-09-10T01:29:34.448Z,12.38
2022-09-10T01:32:27.779Z,12.39
2022-09-10T01:35:08.951Z,12.19
2022-09-10T01:37:41.023Z,12.10
2022-09-10T01:40:09.357Z,12.04
2022-09-10T01:42:39.769Z,12.02
2022-09-10T01:45:07.940Z,12.08
2022-09-10T01:48:06.682Z,12.15
2022-09-10T01:50:41.813Z,12.16
2022-09-10T01:53:15.088Z,12.13
2022-09-10T01:56:19.362Z,12.09
2022-09-10T01:58:49.442Z,12.08
2022-09-10T02:01:40.861Z,11.97
2022-09-10T02:04:14.539Z,11.82
2022-09-10T02:06:48.224Z,11.92
2022-09-10T02:09:16.947Z,11.83
2022-09-10T02:11:47.770Z,11.80
2022-09-10T02:14:25.548Z,11.82
2022-09-10T02:17:11.929Z,11.82
2022-09-10T02:19:40.038Z,11.71
2022-09-10T02:22:07.869Z,11.77
2022-09-10T02:24:35.085Z,11.73
2022-09-10T02:27:02.346Z,11.68
2022-09-10T02:29:29.685Z,11.60
2022-09-10T02:31:57.050Z,11.65
2022-09-10T02:34:24.723Z,11.59
2022-09-10T02:36:52.055Z,11.57
2022-09-10T02:39:19.715Z,11.47
2022-09-10T02:41:48.220Z,11.51
2022-09-10T02:44:16.235Z,11.50
2022-09-10T02:46:45.292Z,11.53
2022-09-10T02:49:14.363Z,11.47
2022-09-10T02:51:42.637Z,11.51
2022-09-10T02:54:09.980Z,11.47
2022-09-10T02:56:37.438Z,11.50
2022-09-10T02:59:05.085Z,11.58
2022-09-10T03:01:34.880Z,11.57
2022-09-10T03:04:04.943Z,11.57
2022-09-10T03:06:32.652Z,11.50
2022-09-10T03:09:01.060Z,11.49
2022-09-10T03:11:29.484Z,11.53
2022-09-10T03:13:58.529Z,11.56
2022-09-10T03:16:27.824Z,11.51
2022-09-10T03:18:55.791Z,11.51
2022-09-10T03:21:27.858Z,11.51
2022-09-10T03:23:58.732Z,11.42
2022-09-10T03:26:29.606Z,11.51
2022-09-10T03:28:57.585Z,11.54
2022-09-10T03:31:29.779Z,11.56
2022-09-10T03:33:59.935Z,11.62
2022-09-10T03:36:33.897Z,11.66
2022-09-10T03:39:01.425Z,11.75
2022-09-10T03:41:32.052Z,11.76
2022-09-10T03:44:00.627Z,11.78
2022-09-10T03:46:28.069Z,11.83
2022-09-10T03:48:57.732Z,11.88
2022-09-10T03:51:27.656Z,11.85
2022-09-10T03:53:56.189Z,12.12
2022-09-10T03:56:23.713Z,11.94
2022-09-10T03:58:51.331Z,12.14
2022-09-10T04:01:19.740Z,12.15
2022-09-10T04:03:49.358Z,12.21
2022-09-10T04:06:16.781Z,12.38
2022-09-10T04:08:44.356Z,12.46
2022-09-10T04:11:16.099Z,12.52
2022-09-10T04:13:44.117Z,12.61
2022-09-10T04:16:12.601Z,12.49
2022-09-10T04:18:40.793Z,12.65
2022-09-10T04:21:08.171Z,12.55
2022-09-10T04:23:36.992Z,12.47
2022-09-10T04:26:18.348Z,12.35
2022-09-10T04:28:49.143Z,12.33
2022-09-10T04:31:17.413Z,12.42
2022-09-10T04:33:46.372Z,12.45
2022-09-10T04:36:15.466Z,12.38
2022-09-10T04:38:44.295Z,12.39
2022-09-10T04:41:15.888Z,12.50
2022-09-10T04:43:43.802Z,12.45
2022-09-10T04:46:11.367Z,12.51
2022-09-10T04:48:41.880Z,12.45
2022-09-10T04:51:16.520Z,12.50
2022-09-10T04:53:47.052Z,12.50
2022-09-10T04:56:14.812Z,12.55
2022-09-10T04:58:44.361Z,12.68
2022-09-10T05:01:12.041Z,12.72
2022-09-10T05:03:40.677Z,12.65
2022-09-10T05:06:09.049Z,12.76
2022-09-10T05:08:36.935Z,12.80
2022-09-10T05:11:05.408Z,12.72
2022-09-10T05:13:33.458Z,12.73
2022-09-10T05:16:01.819Z,12.77
2022-09-10T05:18:30.990Z,12.78
2022-09-10T05:20:58.455Z,12.86
2022-09-10T05:23:27.383Z,12.79
2022-09-10T05:25:56.878Z,12.99
2022-09-10T05:28:24.999Z,13.05
2022-09-10T05:30:52.773Z,13.11
2022-09-10T05:33:22.891Z,13.12
2022-09-10T05:35:53.461Z,13.12
2022-09-10T05:38:22.097Z,13.23
2022-09-10T05:40:50.731Z,13.27
2022-09-10T05:43:18.151Z,13.33
2022-09-10T05:45:47.272Z,13.36
2022-09-10T05:48:15.242Z,13.41
2022-09-10T05:50:45.687Z,13.50
2022-09-10T05:53:13.878Z,13.60
2022-09-10T05:55:41.434Z,13.71
2022-09-10T05:58:09.541Z,13.77
2022-09-10T06:00:38.807Z,13.77
2022-09-10T06:03:06.376Z,13.72
2022-09-10T06:05:39.577Z,13.70
2022-09-10T06:08:09.015Z,13.75
2022-09-10T06:10:41.737Z,13.96
2022-09-10T06:13:11.511Z,13.94
2022-09-10T06:15:42.287Z,13.95
2022-09-10T06:18:10.066Z,13.84
2022-09-10T06:20:38.168Z,13.87
2022-09-10T06:23:07.188Z,13.88
2022-09-10T06:25:34.664Z,14.05
2022-09-10T06:28:03.065Z,14.05
2022-09-10T06:30:30.401Z,14.30
2022-09-10T06:32:57.898Z,14.20
2022-09-10T06:35:27.316Z,14.21
2022-09-10T06:37:58.547Z,14.28
2022-09-10T06:40:28.020Z,14.24
2022-09-10T06:42:55.805Z,14.33
2022-09-10T06:45:45.831Z,14.35
2022-09-10T06:48:38.599Z,14.42
2022-09-10T06:51:12.881Z,14.63
2022-09-10T06:53:41.974Z,14.82
2022-09-10T06:56:14.599Z,14.79
2022-09-10T06:58:42.883Z,14.69
2022-09-10T07:01:20.773Z,14.88
2022-09-10T07:03:56.572Z,14.86
2022-09-10T07:06:26.884Z,14.77
2022-09-10T07:08:59.980Z,14.71
2022-09-10T07:11:33.377Z,14.92
2022-09-10T07:14:02.374Z,14.99
2022-09-10T07:16:32.184Z,15.16
2022-09-10T07:19:00.633Z,15.22
2022-09-10T07:21:37.977Z,15.28
2022-09-10T07:24:12.581Z,15.28
2022-09-10T07:26:42.722Z,15.18
2022-09-10T07:29:10.752Z,15.23
2022-09-10T07:31:38.734Z,15.18
2022-09-10T07:34:10.507Z,15.20
2022-09-10T07:36:37.640Z,15.36
2022-09-10T07:39:05.491Z,15.45
2022-09-10T07:41:35.703Z,15.44
2022-09-10T07:44:06.079Z,15.39
2022-09-10T07:46:38.281Z,15.41
2022-09-10T07:49:10.084Z,15.54
2022-09-10T07:51:39.678Z,15.77
2022-09-10T07:54:07.480Z,15.91
2022-09-10T07:56:45.487Z,16.01
2022-09-10T07:59:15.347Z,16.13
2022-09-10T08:01:48.610Z,16.24
2022-09-10T08:04:18.280Z,16.36
2022-09-10T08:06:45.572Z,16.52
2022-09-10T08:09:14.976Z,16.56
2022-09-10T08:11:50.449Z,16.51
2022-09-10T08:14:20.197Z,16.56
2022-09-10T08:16:51.353Z,16.74
2022-09-10T08:19:20.081Z,16.88
2022-09-10T08:21:47.888Z,16.94
2022-09-10T08:24:22.292Z,16.88
2022-09-10T08:26:50.934Z,16.96
2022-09-10T08:29:19.518Z,17.10
2022-09-10T08:31:47.563Z,17.07
2022-09-10T08:34:20.281Z,17.23
2022-09-10T08:36:55.654Z,17.34
2022-09-10T08:39:24.376Z,17.43
2022-09-10T08:42:05.727Z,17.39
2022-09-10T08:44:50.289Z,17.43
2022-09-10T08:47:48.184Z,17.60
2022-09-10T08:50:22.047Z,17.84
2022-09-10T08:53:00.093Z,17.84
2022-09-10T08:55:38.126Z,17.97
2022-09-10T08:58:08.014Z,18.23
2022-09-10T09:00:40.314Z,18.40
2022-09-10T09:03:45.732Z,18.63
2022-09-10T09:06:48.449Z,18.64
2022-09-10T09:09:16.877Z,18.60
2022-09-10T09:12:16.537Z,18.68
2022-09-10T09:14:57.394Z,18.79
2022-09-10T09:17:48.286Z,18.84
2022-09-10T09:20:18.473Z,18.63
2022-09-10T09:22:55.751Z,18.49
2022-09-10T09:25:47.628Z,18.65
2022-09-10T09:28:27.544Z,18.78
2022-09-10T09:31:01.136Z,18.87
2022-09-10T09:33:30.773Z,18.78
2022-09-10T09:36:03.217Z,18.61
2022-09-10T09:38:48.965Z,18.69
2022-09-10T09:41:50.232Z,18.88
2022-09-10T09:44:52.776Z,19.02
2022-09-10T09:47:23.540Z,19.03
2022-09-10T09:49:51.679Z,19.12
2022-09-10T09:52:23.592Z,19.17
2022-09-10T09:55:15.578Z,19.32
2022-09-10T09:57:43.368Z,19.39
2022-09-10T10:00:40.185Z,19.23
2022-09-10T10:03:18.489Z,19.18
2022-09-10T10:05:47.014Z,19.18
2022-09-10T10:08:31.297Z,19.20
2022-09-10T10:10:59.222Z,19.37
2022-09-10T10:13:48.303Z,19.32
2022-09-10T10:16:24.511Z,19.31
2022-09-10T10:18:51.669Z,19.45
2022-09-10T10:21:30.631Z,19.51
2022-09-10T10:23:59.727Z,19.60
2022-09-10T10:26:33.251Z,19.50
2022-09-10T10:29:19.938Z,19.60
2022-09-10T10:31:50.440Z,19.64
2022-09-10T10:34:29.116Z,19.84
2022-09-10T10:37:22.473Z,20.02
2022-09-10T10:40:22.047Z,20.12
2022-09-10T10:43:16.820Z,20.23
2022-09-10T10:46:22.207Z,20.25
2022-09-10T10:49:23.006Z,20.33
2022-09-10T10:52:02.426Z,20.40
2022-09-10T10:54:44.845Z,20.45
2022-09-10T10:57:15.291Z,20.44
2022-09-10T11:00:09.799Z,20.19
2022-09-10T11:02:58.328Z,20.30
2022-09-10T11:05:31.834Z,20.28
2022-09-10T11:08:04.092Z,20.38
2022-09-10T11:10:45.585Z,20.61
2022-09-10T11:14:00.952Z,20.70
2022-09-10T11:16:58.941Z,20.55
2022-09-10T11:20:05.313Z,20.67
2022-09-10T11:23:00.925Z,20.79
2022-09-10T11:25:39.336Z,20.87
2022-09-10T11:28:25.674Z,20.58
2022-09-10T11:31:02.805Z,20.53
2022-09-10T11:33:55.363Z,20.65
2022-09-10T11:36:31.145Z,20.27
2022-09-10T11:39:26.506Z,20.17
2022-09-10T11:41:55.179Z,20.05
2022-09-10T11:44:55.372Z,20.16
2022-09-10T11:47:43.446Z,20.26
2022-09-10T11:50:34.914Z,20.48
2022-09-10T11:53:07.632Z,20.33
2022-09-10T11:55:47.680Z,20.36
2022-09-10T11:58:26.442Z,20.20
2022-09-10T12:01:25.903Z,20.19
2022-09-10T12:04:08.965Z,20.31
2022-09-10T12:07:00.540Z,20.39
2022-09-10T12:09:51.081Z,20.46
2022-09-10T12:12:23.514Z,20.58
2022-09-10T12:14:51.053Z,20.29
2022-09-10T12:17:34.553Z,20.34
2022-09-10T12:20:04.437Z,20.52
2022-09-10T12:22:37.343Z,20.76
2022-09-10T12:25:27.495Z,20.73
2022-09-10T12:28:00.387Z,20.53
2022-09-10T12:30:29.305Z,20.69
2022-09-10T12:33:00.785Z,20.83
2022-09-10T12:35:31.398Z,20.80
2022-09-10T12:38:35.991Z,20.76
2022-09-10T12:41:08.649Z,20.55
2022-09-10T12:43:35.829Z,20.31
2022-09-10T12:46:09.093Z,20.28
2022-09-10T12:48:46.790Z,20.17
2022-09-10T12:51:16.966Z,20.17
2022-09-10T12:54:05.365Z,20.33
2022-09-10T12:56:52.924Z,20.41
2022-09-10T12:59:35.303Z,20.52
2022-09-10T13:02:03.442Z,20.67
2022-09-10T13:04:34.812Z,20.65
2022-09-10T13:07:24.170Z,20.56
2022-09-10T13:10:06.029Z,20.47
2022-09-10T13:12:36.418Z,20.44
2022-09-10T13:15:05.281Z,20.46
2022-09-10T13:18:02.076Z,20.59
2022-09-10T13:20:32.313Z,20.54
2022-09-10T13:23:09.550Z,20.57
2022-09-10T13:25:44.158Z,20.69
2022-09-10T13:28:37.716Z,20.82
2022-09-10T13:31:13.250Z,20.94
2022-09-10T13:33:49.741Z,20.86
2022-09-10T13:36:38.576Z,20.58
2022-09-10T13:39:27.812Z,20.47
2022-09-10T13:42:14.302Z,20.42
2022-09-10T13:44:54.117Z,20.63
2022-09-10T13:47:29.672Z,20.70
2022-09-10T13:50:03.425Z,20.77
2022-09-10T13:52:35.206Z,20.87
2022-09-10T13:55:05.591Z,20.95
2022-09-10T13:57:42.759Z,21.05
2022-09-10T14:00:13.099Z,20.94
2022-09-10T14:03:01.082Z,20.86
2022-09-10T14:05:36.406Z,20.92
2022-09-10T14:08:14.680Z,20.85
2022-09-10T14:10:56.195Z,20.65
2022-09-10T14:13:44.347Z,20.50
2022-09-10T14:16:18.236Z,20.23
2022-09-10T14:18:52.804Z,20.39
2022-09-10T14:21:27.517Z,20.44
2022-09-10T14:23:57.413Z,20.51
2022-09-10T14:26:30.271Z,20.56
2022-09-10T14:29:22.524Z,20.71
2022-09-10T14:31:49.628Z,20.81
2022-09-10T14:34:32.362Z,20.82
2022-09-10T14:37:38.818Z,20.94
2022-09-10T14:40:17.959Z,20.70
2022-09-10T14:42:48.353Z,20.26
2022-09-10T14:45:41.908Z,20.04
2022-09-10T14:48:28.947Z,19.68
2022-09-10T14:51:24.067Z,19.56
2022-09-10T14:53:59.093Z,19.37
2022-09-10T14:56:33.996Z,19.20
2022-09-10T14:59:04.224Z,19.14
2022-09-10T15:01:32.486Z,19.10
2022-09-10T15:04:00.037Z,19.19
2022-09-10T15:06:28.428Z,19.27
2022-09-10T15:08:58.344Z,19.32
2022-09-10T15:11:28.441Z,19.26
2022-09-10T15:13:56.154Z,19.14
2022-09-10T15:16:23.594Z,19.04
2022-09-10T15:18:51.254Z,19.06
2022-09-10T15:21:19.140Z,18.95
2022-09-10T15:23:46.496Z,18.91
2022-09-10T15:26:14.831Z,18.83
2022-09-10T15:28:42.191Z,18.78
2022-09-10T15:31:10.647Z,18.59
2022-09-10T15:33:38.371Z,18.54
2022-09-10T15:36:08.377Z,18.57
2022-09-10T15:38:35.656Z,18.49
2022-09-10T15:41:13.962Z,18.42
2022-09-10T15:43:43.381Z,18.34
2022-09-10T15:46:12.600Z,18.29
2022-09-10T15:48:41.199Z,18.32
2022-09-10T15:51:15.452Z,18.31
2022-09-10T15:53:43.681Z,18.17
2022-09-10T15:56:12.225Z,18.19
2022-09-10T15:58:39.869Z,18.15
2022-09-10T16:01:14.335Z,18.07
2022-09-10T16:03:47.431Z,18.01
2022-09-10T16:06:16.054Z,17.90
2022-09-10T16:08:48.707Z,17.88
2022-09-10T16:11:16.546Z,17.86
2022-09-10T16:13:45.223Z,17.81
2022-09-10T16:16:19.671Z,17.75
2022-09-10T16:18:48.146Z,17.66
2022-09-10T16:21:22.592Z,17.60
2022-09-10T16:23:52.204Z,17.65
2022-09-10T16:26:23.353Z,17.56
2022-09-10T16:28:52.784Z,17.55
2022-09-10T16:31:25.803Z,17.47
2022-09-10T16:33:55.164Z,17.44
2022-09-10T16:36:23.821Z,17.32
2022-09-10T16:38:59.601Z,17.39
2022-09-10T16:41:28.027Z,17.28
2022-09-10T16:43:58.537Z,17.24
2022-09-10T16:46:28.193Z,17.22
2022-09-10T16:48:58.309Z,17.16
2022-09-10T16:51:27.124Z,16.97
2022-09-10T16:54:14.391Z,16.97
2022-09-10T16:56:46.786Z,17.00
2022-09-10T16:59:17.769Z,16.99
2022-09-10T17:01:49.213Z,17.00
2022-09-10T17:04:23.385Z,16.99
2022-09-10T17:06:53.498Z,16.99
2022-09-10T17:09:21.061Z,17.00
2022-09-10T17:11:49.498Z,16.94
2022-09-10T17:14:17.951Z,16.90
2022-09-10T17:16:45.503Z,16.88
2022-09-10T17:19:19.169Z,16.90
2022-09-10T17:21:51.507Z,16.73
2022-09-10T17:24:23.672Z,16.79
2022-09-10T17:26:52.097Z,16.69
2022-09-10T17:29:22.434Z,16.72
2022-09-10T17:31:52.365Z,16.63
2022-09-10T17:34:21.660Z,16.62
2022-09-10T17:36:49.916Z,16.68
2022-09-10T17:39:17.559Z,16.65
2022-09-10T17:41:45.695Z,16.62
2022-09-10T17:44:14.082Z,16.62
2022-09-10T17:46:43.224Z,16.61
2022-09-10T17:49:13.608Z,16.59
2022-09-10T17:51:40.927Z,16.57
2022-09-10T17:54:08.569Z,16.66
2022-09-10T17:56:37.980Z,16.48
2022-09-10T17:59:06.153Z,16.59
2022-09-10T18:01:37.945Z,16.67
2022-09-10T18:04:06.930Z,16.60
2022-09-10T18:06:37.833Z,16.46
2022-09-10T18:09:06.588Z,16.47
2022-09-10T18:11:37.681Z,16.50
2022-09-10T18:14:05.369Z,16.35
2022-09-10T18:16:33.773Z,16.39
2022-09-10T18:19:13.540Z,16.34
2022-09-10T18:21:41.790Z,16.32
2022-09-10T18:24:17.106Z,16.32
2022-09-10T18:26:47.675Z,16.30
2022-09-10T18:29:21.314Z,16.36
2022-09-10T18:31:51.738Z,16.35
2022-09-10T18:34:24.058Z,16.32
2022-09-10T18:36:55.472Z,16.24
2022-09-10T18:39:23.741Z,16.28
2022-09-10T18:41:51.309Z,16.19
2022-09-10T18:44:24.947Z,16.04
2022-09-10T18:46:53.279Z,16.00
2022-09-10T18:49:24.481Z,15.98
2022-09-10T18:51:53.189Z,16.07
2022-09-10T18:54:22.116Z,16.04
2022-09-10T18:56:50.752Z,15.95
2022-09-10T18:59:23.888Z,15.91
2022-09-10T19:01:53.525Z,15.81
2022-09-10T19:04:24.092Z,15.82
2022-09-10T19:06:52.691Z,15.76
2022-09-10T19:09:24.245Z,15.64
2022-09-10T19:11:53.354Z,15.75
2022-09-10T19:14:40.179Z,15.78
2022-09-10T19:17:07.878Z,15.87
2022-09-10T19:19:36.647Z,15.80
2022-09-10T19:22:10.290Z,15.65
2022-09-10T19:24:54.657Z,15.65
2022-09-10T19:27:23.089Z,15.80
2022-09-10T19:29:50.538Z,15.60
2022-09-10T19:32:20.012Z,15.45
2022-09-10T19:34:51.681Z,15.48
2022-09-10T19:37:20.065Z,15.43
2022-09-10T19:39:47.743Z,15.33
2022-09-10T19:42:15.301Z,15.25
2022-09-10T19:44:43.644Z,15.24
2022-09-10T19:47:11.217Z,15.19
2022-09-10T19:49:39.256Z,15.08
2022-09-10T19:52:06.615Z,15.04
2022-09-10T19:54:35.258Z,15.10
2022-09-10T19:57:03.250Z,15.12
2022-09-10T19:59:30.660Z,15.14
2022-09-10T20:01:59.711Z,15.12
2022-09-10T20:04:27.808Z,15.03
2022-09-10T20:06:55.051Z,15.14
2022-09-10T20:09:22.336Z,15.06
2022-09-10T20:11:50.404Z,15.15
2022-09-10T20:14:19.798Z,15.16
2022-09-10T20:16:47.144Z,15.23
2022-09-10T20:19:18.493Z,15.20
2022-09-10T20:21:47.888Z,15.16
2022-09-10T20:24:16.062Z,15.24
2022-09-10T20:26:44.420Z,15.15
2022-09-10T20:29:14.587Z,15.11
2022-09-10T20:31:43.874Z,15.04
2022-09-10T20:34:13.968Z,15.13
2022-09-10T20:36:44.646Z,15.13
2022-09-10T20:39:17.137Z,14.96
2022-09-10T20:41:44.696Z,14.89
2022-09-10T20:44:13.924Z,14.91
2022-09-10T20:46:42.217Z,14.95
2022-09-10T20:49:11.947Z,14.92
2022-09-10T20:51:40.666Z,14.89
2022-09-10T20:54:11.736Z,14.86
2022-09-10T20:56:39.570Z,14.83
2022-09-10T20:59:07.566Z,14.70
2022-09-10T21:01:35.690Z,14.69
2022-09-10T21:04:04.227Z,14.76
2022-09-10T21:06:33.777Z,14.80
2022-09-10T21:09:02.730Z,14.75
2022-09-10T21:11:32.413Z,14.62
2022-09-10T21:14:02.178Z,14.60
2022-09-10T21:16:31.671Z,14.64
2022-09-10T21:19:01.337Z,14.55
2022-09-10T21:21:31.215Z,14.40
2022-09-10T21:24:12.994Z,14.50
2022-09-10T21:26:43.561Z,14.38
2022-09-10T21:29:14.550Z,14.34
2022-09-10T21:31:42.844Z,14.39
2022-09-10T21:34:09.962Z,14.27
2022-09-10T21:36:38.917Z,14.33
2022-09-10T21:39:09.174Z,14.32
2022-09-10T21:41:42.720Z,14.34
2022-09-10T21:44:19.957Z,14.32
2022-09-10T21:46:47.997Z,14.31
2022-09-10T21:49:15.912Z,14.34
2022-09-10T21:51:43.394Z,14.32
2022-09-10T21:54:21.372Z,14.38
2022-09-10T21:56:52.608Z,14.42
2022-09-10T21:59:21.476Z,14.26
2022-09-10T22:01:50.166Z,14.25
2022-09-10T22:04:22.557Z,14.36
2022-09-10T22:06:51.049Z,14.44
2022-09-10T22:09:18.442Z,14.43
2022-09-10T22:11:50.660Z,14.50
2022-09-10T22:14:23.551Z,14.59
2022-09-10T22:16:52.811Z,14.66
2022-09-10T22:19:22.744Z,14.66
2022-09-10T22:21:51.109Z,14.64
2022-09-10T22:24:21.074Z,14.52
2022-09-10T22:26:48.785Z,14.70
2022-09-10T22:29:20.614Z,14.62
2022-09-10T22:31:48.640Z,14.67
2022-09-10T22:34:19.822Z,14.70
2022-09-10T22:36:48.627Z,14.66
2022-09-10T22:39:23.338Z,14.66
2022-09-10T22:41:51.721Z,14.45
2022-09-10T22:44:20.256Z,14.70
2022-09-10T22:46:48.200Z,14.65
2022-09-10T22:49:16.719Z,14.80
2022-09-10T22:51:44.195Z,14.83
2022-09-10T22:54:11.752Z,14.64
2022-09-10T22:56:40.061Z,14.57
2022-09-10T22:59:07.986Z,14.62
2022-09-10T23:01:38.017Z,14.69
2022-09-10T23:04:07.822Z,14.68
2022-09-10T23:06:37.034Z,14.57
2022-09-10T23:09:13.032Z,14.57
2022-09-10T23:11:41.729Z,14.66
2022-09-10T23:14:13.144Z,14.71
2022-09-10T23:16:43.234Z,14.57
2022-09-10T23:19:19.817Z,14.53
2022-09-10T23:21:52.008Z,14.45
2022-09-10T23:24:22.945Z,14.58
2022-09-10T23:26:51.669Z,14.61
2022-09-10T23:29:20.143Z,14.54
2022-09-10T23:31:47.983Z,14.66
2022-09-10T23:34:18.042Z,14.56
2022-09-10T23:36:49.246Z,14.60
2022-09-10T23:39:21.817Z,14.52
2022-09-10T23:41:54.282Z,14.57
2022-09-10T23:44:22.398Z,14.62
2022-09-10T23:46:50.227Z,14.64
2022-09-10T23:49:17.364Z,14.61
2022-09-10T23:51:44.659Z,14.63
2022-09-10T23:54:12.331Z,14.70
2022-09-10T23:56:40.515Z,14.71
2022-09-10T23:59:08.061Z,14.74
